Time;durP1;ratioP1;P1;durP2;ratioP2;P2;SDS_P1;SDS_P2;PMS_P1;PMS_P2;Temp;Humidity;BMP_temperature;BMP_pressure;BME280_temperature;BME280_humidity;BME280_pressure;Samples;Min_cycle;Max_cycle;Signal;HPM_P1;HPM_P2
2022/09/19 00:02:36;;;;;;;1.38;0.90;;;;;;;;;;10241867;28;20495;-73
2022/09/19 00:07:36;;;;;;;1.20;0.90;;;;;;;;;;10242022;28;20047;-73
2022/09/19 00:12:37;;;;;;;5.50;1.13;;;;;;;;;;10225286;29;20397;-73
2022/09/19 00:17:37;;;;;;;2.83;1.83;;;;;;;;;;10225515;28;20025;-74
2022/09/19 00:24:45;;;;;;;2.10;1.00;;;;;;;;;;10240266;29;20395;-75
2022/09/19 00:27:58;;;;;;;16.73;13.07;;;;;;;;;;10235302;28;20571;-77
2022/09/19 00:33:00;;;;;;;1.88;1.27;;;;;;;;;;10223533;28;20051;-76
2022/09/19 00:38:01;;;;;;;3.63;1.33;;;;;;;;;;10245902;28;20020;-74
2022/09/19 00:43:01;;;;;;;1.30;0.97;;;;;;;;;;10224991;29;20023;-73
2022/09/19 00:48:01;;;;;;;2.80;1.15;;;;;;;;;;10225398;29;20086;-74
2022/09/19 00:53:10;;;;;;;5.00;1.60;;;;;;;;;;10241321;28;20023;-73
2022/09/19 00:58:14;;;;;;;21.13;16.38;;;;;;;;;;10239306;28;20114;-73
2022/09/19 01:03:14;;;;;;;3.40;1.23;;;;;;;;;;10222964;28;20023;-73
2022/09/19 01:08:35;;;;;;;2.97;1.10;;;;;;;;;;10224432;29;20031;-73
2022/09/19 01:13:55;;;;;;;2.05;1.42;;;;;;;;;;10225923;28;20521;-73
2022/09/19 01:19:05;;;;;;;2.85;1.30;;;;;;;;;;10223633;28;20018;-78
2022/09/19 01:24:20;;;;;;;1.63;1.50;;;;;;;;;;10224648;28;20035;-75
2022/09/19 01:29:29;;;;;;;3.20;2.08;;;;;;;;;;10223825;29;20094;-78
2022/09/19 01:34:33;;;;;;;2.38;1.30;;;;;;;;;;10239407;28;20577;-72
2022/09/19 01:39:35;;;;;;;1.17;0.93;;;;;;;;;;10224452;28;20028;-74
2022/09/19 01:44:36;;;;;;;6.57;1.73;;;;;;;;;;10223940;29;20069;-72
2022/09/19 01:49:51;;;;;;;1.25;1.10;;;;;;;;;;10225227;28;20474;-73
2022/09/19 01:55:02;;;;;;;1.25;1.15;;;;;;;;;;10244408;28;20116;-73
2022/09/19 02:00:06;;;;;;;1.33;1.15;;;;;;;;;;10243696;28;20015;-75
2022/09/19 02:05:06;;;;;;;2.90;1.45;;;;;;;;;;10231009;29;20026;-76
2022/09/19 02:10:09;;;;;;;1.57;1.47;;;;;;;;;;10245868;28;20564;-73
2022/09/19 02:15:11;;;;;;;5.00;1.33;;;;;;;;;;10247635;29;20024;-75
2022/09/19 02:20:13;;;;;;;1.98;1.33;;;;;;;;;;10243545;28;20150;-73
2022/09/19 02:25:17;;;;;;;2.17;1.40;;;;;;;;;;10246380;28;20035;-73
2022/09/19 02:30:20;;;;;;;3.58;1.58;;;;;;;;;;10212838;28;20023;-73
2022/09/19 02:35:34;;;;;;;3.25;1.75;;;;;;;;;;10247269;28;20039;-76
2022/09/19 02:40:39;;;;;;;2.47;1.60;;;;;;;;;;10244916;28;20038;-73
2022/09/19 02:45:43;;;;;;;1.67;1.55;;;;;;;;;;10228782;28;20024;-74
2022/09/19 02:51:03;;;;;;;4.30;2.10;;;;;;;;;;10242556;29;20568;-73
2022/09/19 02:56:04;;;;;;;2.45;1.58;;;;;;;;;;10227128;28;20027;-75
2022/09/19 03:01:16;;;;;;;3.22;1.77;;;;;;;;;;10244720;28;20015;-75
2022/09/19 03:06:18;;;;;;;9.43;1.73;;;;;;;;;;10239816;28;20122;-74
2022/09/19 03:11:19;;;;;;;133.45;120.95;;;;;;;;;;10228057;29;20023;-75
2022/09/19 03:16:23;;;;;;;2.90;2.22;;;;;;;;;;10227924;28;20115;-75
2022/09/19 03:21:24;;;;;;;6.97;2.60;;;;;;;;;;10227066;29;20138;-73
2022/09/19 03:26:30;;;;;;;4.93;2.28;;;;;;;;;;10227120;29;20070;-76
2022/09/19 03:31:31;;;;;;;3.65;2.40;;;;;;;;;;10242642;28;20142;-77
2022/09/19 03:36:34;;;;;;;3.97;2.83;;;;;;;;;;10243319;29;20073;-73
2022/09/19 03:41:37;;;;;;;3.25;2.85;;;;;;;;;;10241611;28;20054;-74
2022/09/19 03:46:38;;;;;;;8.23;3.88;;;;;;;;;;10226513;28;20034;-73
2022/09/19 03:51:38;;;;;;;7.20;4.00;;;;;;;;;;10243651;29;20031;-73
2022/09/19 03:56:39;;;;;;;5.47;3.92;;;;;;;;;;10224335;28;20019;-73
2022/09/19 04:01:39;;;;;;;10.63;4.70;;;;;;;;;;10225390;29;20023;-74
2022/09/19 04:06:40;;;;;;;5.05;3.38;;;;;;;;;;10241599;29;20469;-73
2022/09/19 04:11:41;;;;;;;7.60;3.33;;;;;;;;;;10221900;28;20480;-74
2022/09/19 04:16:41;;;;;;;6.07;3.65;;;;;;;;;;10209582;29;20019;-73
2022/09/19 04:21:42;;;;;;;6.78;3.35;;;;;;;;;;10224649;28;20019;-73
2022/09/19 04:26:43;;;;;;;2.95;2.60;;;;;;;;;;10220227;29;20074;-72
2022/09/19 04:31:43;;;;;;;7.22;2.72;;;;;;;;;;10238777;28;20043;-78
2022/09/19 04:36:43;;;;;;;3.45;2.70;;;;;;;;;;10241341;29;20046;-74
2022/09/19 04:41:45;;;;;;;2.05;1.27;;;;;;;;;;10240100;29;20471;-78
2022/09/19 04:46:46;;;;;;;3.38;2.40;;;;;;;;;;10222045;29;20058;-77
2022/09/19 04:51:46;;;;;;;9.02;2.30;;;;;;;;;;10236020;28;20042;-76
2022/09/19 04:56:47;;;;;;;1.40;1.20;;;;;;;;;;10217843;29;20493;-72
2022/09/19 05:01:47;;;;;;;2.40;1.20;;;;;;;;;;10235716;28;20567;-77
2022/09/19 05:06:47;;;;;;;3.83;1.13;;;;;;;;;;10219539;28;20083;-77
2022/09/19 05:11:49;;;;;;;1.20;1.10;;;;;;;;;;10236172;28;20520;-76
2022/09/19 05:16:50;;;;;;;2.47;1.77;;;;;;;;;;10216419;29;20525;-73
2022/09/19 05:21:51;;;;;;;2.83;2.30;;;;;;;;;;10219026;28;20018;-79
2022/09/19 05:26:53;;;;;;;4.45;2.38;;;;;;;;;;10223260;28;20046;-76
2022/09/19 05:31:55;;;;;;;2.58;2.38;;;;;;;;;;10224310;28;20054;-78
2022/09/19 05:36:55;;;;;;;3.95;2.95;;;;;;;;;;10227022;28;20059;-78
2022/09/19 05:41:55;;;;;;;7.97;4.30;;;;;;;;;;10225120;28;20146;-76
2022/09/19 05:46:57;;;;;;;12.90;4.97;;;;;;;;;;10228415;28;20259;-76
2022/09/19 05:53:51;;;;;;;10.68;5.40;;;;;;;;;;10228423;28;20415;-77
2022/09/19 05:57:18;;;;;;;5.78;3.80;;;;;;;;;;10244669;28;20087;-78
2022/09/19 06:02:20;;;;;;;7.80;4.03;;;;;;;;;;10246596;28;20114;-73
2022/09/19 06:07:20;;;;;;;8.52;4.10;;;;;;;;;;10213224;29;20047;-74
2022/09/19 06:12:21;;;;;;;10.30;5.25;;;;;;;;;;10245162;28;20117;-73
2022/09/19 06:17:21;;;;;;;4.75;3.08;;;;;;;;;;10226296;29;20561;-73
2022/09/19 06:22:21;;;;;;;7.82;3.20;;;;;;;;;;10225403;29;20035;-74
2022/09/19 06:27:22;;;;;;;5.22;3.00;;;;;;;;;;10208177;28;20082;-75
2022/09/19 06:32:22;;;;;;;4.03;2.53;;;;;;;;;;10239832;28;20051;-77
2022/09/19 06:37:22;;;;;;;6.20;3.47;;;;;;;;;;10225728;28;20138;-77
2022/09/19 06:42:23;;;;;;;5.85;2.90;;;;;;;;;;10245361;28;20287;-78
2022/09/19 06:47:23;;;;;;;5.75;2.50;;;;;;;;;;10244685;28;20465;-74
2022/09/19 06:52:23;;;;;;;7.03;3.65;;;;;;;;;;10245496;29;20114;-74
2022/09/19 06:57:23;;;;;;;4.28;2.47;;;;;;;;;;10243064;28;20525;-73
2022/09/19 07:02:24;;;;;;;4.93;2.47;;;;;;;;;;10244821;28;20042;-74
2022/09/19 07:07:24;;;;;;;3.33;1.88;;;;;;;;;;10242955;28;20027;-76
2022/09/19 07:12:24;;;;;;;7.40;2.00;;;;;;;;;;10227125;28;20114;-76
2022/09/19 07:17:25;;;;;;;5.60;1.63;;;;;;;;;;10243976;28;20059;-73
2022/09/19 07:22:26;;;;;;;3.58;1.40;;;;;;;;;;10244327;28;20026;-73
2022/09/19 07:27:26;;;;;;;2.70;1.30;;;;;;;;;;10244654;28;20035;-76
2022/09/19 07:32:27;;;;;;;1.13;0.77;;;;;;;;;;10226559;29;20124;-73
2022/09/19 07:37:28;;;;;;;6.20;1.20;;;;;;;;;;10209185;28;20498;-76
2022/09/19 07:42:28;;;;;;;2.83;1.00;;;;;;;;;;10226873;28;20019;-74
2022/09/19 07:47:28;;;;;;;9.13;1.13;;;;;;;;;;10225824;28;20118;-76
2022/09/19 07:52:28;;;;;;;5.10;1.73;;;;;;;;;;10243639;29;20098;-78
2022/09/19 07:57:29;;;;;;;6.68;1.58;;;;;;;;;;10225579;28;20461;-77
2022/09/19 08:02:29;;;;;;;3.60;1.33;;;;;;;;;;10242337;28;20029;-77
2022/09/19 08:07:29;;;;;;;5.13;1.30;;;;;;;;;;10225365;28;20473;-76
2022/09/19 08:12:30;;;;;;;6.28;1.35;;;;;;;;;;10225259;28;20402;-77
2022/09/19 08:17:30;;;;;;;9.50;1.20;;;;;;;;;;10225067;28;20110;-73
2022/09/19 08:22:32;;;;;;;4.47;1.43;;;;;;;;;;10240556;28;20488;-73
2022/09/19 08:27:32;;;;;;;4.13;1.52;;;;;;;;;;10224959;28;20046;-79
2022/09/19 08:32:33;;;;;;;4.75;2.05;;;;;;;;;;10224851;29;20050;-77
2022/09/19 08:37:33;;;;;;;9.05;1.80;;;;;;;;;;10225505;28;20138;-74
2022/09/19 08:42:44;;;;;;;5.70;2.08;;;;;;;;;;10224447;29;20019;-73
2022/09/19 08:47:45;;;;;;;6.93;2.08;;;;;;;;;;10223915;29;20031;-76
2022/09/19 08:52:48;;;;;;;6.35;2.15;;;;;;;;;;10224952;29;20016;-73
2022/09/19 08:57:50;;;;;;;13.23;1.60;;;;;;;;;;10243223;28;20070;-75
2022/09/19 09:02:51;;;;;;;8.13;2.25;;;;;;;;;;10247949;28;20434;-77
2022/09/19 09:08:08;;;;;;;4.75;2.55;;;;;;;;;;10248660;28;20123;-76
2022/09/19 09:13:26;;;;;;;5.55;1.80;;;;;;;;;;10247673;29;20054;-79
2022/09/19 09:18:29;;;;;;;4.80;1.67;;;;;;;;;;10248480;28;20011;-74
2022/09/19 09:23:32;;;;;;;3.13;1.88;;;;;;;;;;10231212;29;20027;-73
2022/09/19 09:28:51;;;;;;;4.63;1.80;;;;;;;;;;10248323;28;20019;-80
2022/09/19 09:34:02;;;;;;;2.65;1.27;;;;;;;;;;10245252;28;20054;-74
2022/09/19 09:39:08;;;;;;;2.90;1.30;;;;;;;;;;10248127;28;20047;-74
2022/09/19 09:44:16;;;;;;;5.32;1.15;;;;;;;;;;10230252;29;20126;-77
2022/09/19 09:49:18;;;;;;;3.08;0.50;;;;;;;;;;10247976;29;20399;-78
2022/09/19 10:05:14;;;;;;;2.40;0.40;;;;;;;;;;10243753;28;20031;-72
2022/09/19 10:10:17;;;;;;;3.30;0.80;;;;;;;;;;10228819;28;20019;-73
2022/09/19 10:15:20;;;;;;;1.35;0.55;;;;;;;;;;10246310;28;20023;-77
2022/09/19 10:20:29;;;;;;;4.18;0.77;;;;;;;;;;10229075;29;20063;-77
2022/09/19 10:25:30;;;;;;;4.40;0.60;;;;;;;;;;10246750;29;20027;-74
2022/09/19 10:30:36;;;;;;;1.92;0.65;;;;;;;;;;10229506;28;20027;-80
2022/09/19 10:35:38;;;;;;;3.38;0.70;;;;;;;;;;10204475;29;20052;-77
2022/09/19 10:40:41;;;;;;;3.67;0.65;;;;;;;;;;10205196;29;20110;-74
2022/09/19 10:45:45;;;;;;;1.23;0.57;;;;;;;;;;10204809;29;20097;-73
2022/09/19 10:50:50;;;;;;;1.95;0.45;;;;;;;;;;10189465;29;20170;-75
2022/09/19 10:55:55;;;;;;;3.47;0.90;;;;;;;;;;10204386;29;20541;-75
2022/09/19 11:01:04;;;;;;;4.90;0.80;;;;;;;;;;10204759;29;20489;-79
2022/09/19 11:06:08;;;;;;;1.83;0.68;;;;;;;;;;10218296;28;20051;-76
2022/09/19 11:11:25;;;;;;;3.63;0.95;;;;;;;;;;10203460;29;20501;-73
2022/09/19 11:16:37;;;;;;;2.88;0.82;;;;;;;;;;10218499;28;20082;-74
2022/09/19 11:21:49;;;;;;;3.20;0.80;;;;;;;;;;10210437;28;20083;-74
2022/09/19 11:26:52;;;;;;;7.28;1.10;;;;;;;;;;10204982;29;20101;-73
2022/09/19 11:32:03;;;;;;;4.75;1.13;;;;;;;;;;10212225;28;20644;-73
2022/09/19 11:37:25;;;;;;;5.55;1.27;;;;;;;;;;10224993;29;20031;-74
2022/09/19 11:42:35;;;;;;;3.05;1.27;;;;;;;;;;10244238;29;20075;-79
2022/09/19 11:47:44;;;;;;;2.15;1.17;;;;;;;;;;10224392;29;20030;-74
2022/09/19 11:53:03;;;;;;;2.88;1.00;;;;;;;;;;10241967;28;20050;-74
2022/09/19 11:58:16;;;;;;;2.22;0.98;;;;;;;;;;10241545;28;20038;-74
2022/09/19 12:03:24;;;;;;;2.20;1.10;;;;;;;;;;10241693;29;20066;-76
2022/09/19 12:08:45;;;;;;;1.92;1.05;;;;;;;;;;10242192;28;20111;-74
2022/09/19 12:13:49;;;;;;;5.07;1.50;;;;;;;;;;10241247;28;20027;-77
2022/09/19 12:18:55;;;;;;;3.15;1.63;;;;;;;;;;10224366;29;20053;-73
2022/09/19 12:29:24;;;;;;;2.83;1.23;;;;;;;;;;10242940;29;20094;-74
2022/09/19 12:34:29;;;;;;;5.28;1.25;;;;;;;;;;10206959;29;20059;-76
2022/09/19 12:39:45;;;;;;;5.70;1.70;;;;;;;;;;10227068;29;20047;-77
2022/09/19 12:44:51;;;;;;;6.28;1.30;;;;;;;;;;10227190;28;20034;-77
2022/09/19 12:50:03;;;;;;;3.78;1.27;;;;;;;;;;10201548;29;20019;-74
2022/09/19 12:55:16;;;;;;;4.43;1.60;;;;;;;;;;10216300;28;20055;-74
2022/09/19 13:00:18;;;;;;;6.25;1.50;;;;;;;;;;10216970;28;20496;-78
2022/09/19 13:05:22;;;;;;;4.68;1.55;;;;;;;;;;10200730;29;20028;-75
2022/09/19 13:10:23;;;;;;;2.58;0.70;;;;;;;;;;10200615;29;20019;-73
2022/09/19 13:15:32;;;;;;;2.70;1.30;;;;;;;;;;10200727;29;20023;-77
2022/09/19 13:26:17;;;;;;;4.13;1.08;;;;;;;;;;10182792;29;20462;-74
2022/09/19 13:31:18;;;;;;;2.17;0.93;;;;;;;;;;10202605;29;20114;-76
2022/09/19 13:36:21;;;;;;;3.72;1.02;;;;;;;;;;10187149;29;20090;-73
2022/09/19 13:41:29;;;;;;;3.00;0.90;;;;;;;;;;10187839;29;20098;-74
2022/09/19 13:46:35;;;;;;;1.85;0.88;;;;;;;;;;10192318;29;20032;-75
2022/09/19 13:51:44;;;;;;;4.93;1.27;;;;;;;;;;10201173;29;20039;-74
2022/09/19 13:56:48;;;;;;;4.35;0.90;;;;;;;;;;10204604;29;20040;-74
2022/09/19 14:01:54;;;;;;;5.25;1.10;;;;;;;;;;10191140;29;20038;-77
2022/09/19 14:06:56;;;;;;;5.22;1.15;;;;;;;;;;10205928;29;20465;-78
2022/09/19 14:11:58;;;;;;;3.83;1.33;;;;;;;;;;10182755;29;20023;-76
2022/09/19 14:17:17;;;;;;;1.40;0.73;;;;;;;;;;10206042;29;20057;-77
2022/09/19 14:22:32;;;;;;;6.63;1.08;;;;;;;;;;10205441;29;20027;-74
2022/09/19 14:27:46;;;;;;;4.97;1.13;;;;;;;;;;10208878;29;20060;-78
2022/09/19 14:33:09;;;;;;;2.65;0.82;;;;;;;;;;10214549;28;20517;-77
2022/09/19 14:38:33;;;;;;;1.95;1.30;;;;;;;;;;10223689;29;20070;-76
2022/09/19 14:43:36;;;;;;;6.70;0.80;;;;;;;;;;10218103;29;20718;-82
2022/09/19 14:48:36;;;;;;;3.40;0.90;;;;;;;;;;10238664;28;20023;-77
2022/09/19 14:53:39;;;;;;;4.28;0.90;;;;;;;;;;10223514;29;20417;-77
2022/09/19 14:58:39;;;;;;;2.97;0.90;;;;;;;;;;10235729;28;20478;-74
2022/09/19 15:03:47;;;;;;;2.55;0.70;;;;;;;;;;10238362;28;20035;-76
2022/09/19 15:08:48;;;;;;;4.28;1.13;;;;;;;;;;10223774;29;20027;-74
2022/09/19 15:13:54;;;;;;;2.50;0.60;;;;;;;;;;10239676;28;20417;-74
2022/09/19 15:18:56;;;;;;;1.88;1.10;;;;;;;;;;10220942;28;20049;-76
2022/09/19 15:23:58;;;;;;;2.72;1.20;;;;;;;;;;10207517;29;20058;-75
2022/09/19 15:29:03;;;;;;;0.90;0.57;;;;;;;;;;10223979;28;20027;-78
2022/09/19 15:34:05;;;;;;;3.63;0.70;;;;;;;;;;10199048;29;20562;-77
2022/09/19 15:39:06;;;;;;;4.45;1.00;;;;;;;;;;10199713;29;20028;-73
2022/09/19 15:44:21;;;;;;;1.63;0.70;;;;;;;;;;10182648;29;20061;-74
2022/09/19 15:49:30;;;;;;;1.38;0.73;;;;;;;;;;10212826;28;20126;-77
2022/09/19 15:54:31;;;;;;;2.80;0.82;;;;;;;;;;10196696;29;20520;-75
2022/09/19 15:59:35;;;;;;;4.63;1.27;;;;;;;;;;10197933;29;20123;-74
2022/09/19 16:04:36;;;;;;;2.45;0.90;;;;;;;;;;10198933;29;20307;-78
2022/09/19 16:09:38;;;;;;;4.47;0.95;;;;;;;;;;10197383;29;20055;-78
2022/09/19 16:14:42;;;;;;;4.15;0.93;;;;;;;;;;10196183;29;20023;-81
2022/09/19 16:19:43;;;;;;;2.50;1.20;;;;;;;;;;10197755;29;20090;-77
2022/09/19 16:24:48;;;;;;;5.05;1.58;;;;;;;;;;10197471;29;20039;-79
2022/09/19 16:29:49;;;;;;;7.30;1.70;;;;;;;;;;10197630;29;20043;-77
2022/09/19 16:34:53;;;;;;;9.30;1.63;;;;;;;;;;10197176;29;20048;-75
2022/09/19 16:39:55;;;;;;;15.50;2.28;;;;;;;;;;10210598;28;20087;-76
2022/09/19 16:45:17;;;;;;;6.90;2.90;;;;;;;;;;10196403;29;20063;-73
2022/09/19 16:50:20;;;;;;;5.60;2.25;;;;;;;;;;10210909;29;20106;-74
2022/09/19 16:55:25;;;;;;;12.02;2.67;;;;;;;;;;10196417;29;20056;-79
2022/09/19 17:00:26;;;;;;;11.73;2.30;;;;;;;;;;10196994;29;20060;-74
2022/09/19 17:05:30;;;;;;;8.63;1.92;;;;;;;;;;10194858;29;20059;-74
2022/09/19 17:10:31;;;;;;;6.03;1.60;;;;;;;;;;10191080;29;20034;-73
2022/09/19 17:15:52;;;;;;;2.45;1.35;;;;;;;;;;10183139;29;20482;-74
2022/09/19 17:20:54;;;;;;;7.47;1.40;;;;;;;;;;10187685;29;20433;-74
2022/09/19 17:25:55;;;;;;;3.47;1.40;;;;;;;;;;10190102;29;20032;-79
2022/09/19 17:30:57;;;;;;;2.08;1.15;;;;;;;;;;10190619;29;20031;-78
2022/09/19 17:35:57;;;;;;;1.92;0.85;;;;;;;;;;10213755;28;20043;-79
2022/09/19 17:40:59;;;;;;;3.92;1.25;;;;;;;;;;10216263;28;20019;-78
2022/09/19 17:46:02;;;;;;;2.92;1.42;;;;;;;;;;10219451;28;20416;-75
2022/09/19 17:51:10;;;;;;;8.00;1.25;;;;;;;;;;10239876;29;20023;-72
2022/09/19 17:56:10;;;;;;;;;;;;;;;;;;10227236;28;20031;-76
2022/09/19 18:06:32;;;;;;;5.65;2.33;;;;;;;;;;10243727;28;20035;-72
2022/09/19 18:11:33;;;;;;;7.70;2.50;;;;;;;;;;10241202;28;20031;-72
2022/09/19 18:16:34;;;;;;;15.15;2.28;;;;;;;;;;10238898;28;20020;-72
2022/09/19 18:21:39;;;;;;;5.38;2.05;;;;;;;;;;10224172;29;20019;-75
2022/09/19 18:26:40;;;;;;;4.25;1.90;;;;;;;;;;10224486;29;20515;-71
2022/09/19 18:31:40;;;;;;;8.32;1.63;;;;;;;;;;10222973;28;20138;-73
2022/09/19 18:36:40;;;;;;;3.70;1.08;;;;;;;;;;10209996;29;20035;-72
2022/09/19 18:41:41;;;;;;;3.50;0.88;;;;;;;;;;10221655;28;20027;-72
2022/09/19 18:46:41;;;;;;;1.90;0.77;;;;;;;;;;10208997;29;20394;-72
2022/09/19 18:51:42;;;;;;;2.55;0.90;;;;;;;;;;10223851;28;20485;-76
2022/09/19 18:56:42;;;;;;;1.42;0.95;;;;;;;;;;10224603;29;20739;-77
2022/09/19 19:01:42;;;;;;;1.63;1.20;;;;;;;;;;10225266;29;20023;-73
2022/09/19 19:06:42;;;;;;;2.28;1.38;;;;;;;;;;10223492;28;20130;-76
2022/09/19 19:11:43;;;;;;;1.83;1.00;;;;;;;;;;10224381;29;20116;-73
2022/09/19 19:16:43;;;;;;;1.80;1.05;;;;;;;;;;10240255;28;20465;-72
2022/09/19 19:21:43;;;;;;;1.00;0.60;;;;;;;;;;10210206;29;20531;-74
2022/09/19 19:26:44;;;;;;;7.03;1.17;;;;;;;;;;10240322;29;20414;-76
2022/09/19 19:31:44;;;;;;;5.38;0.73;;;;;;;;;;10239979;28;20063;-72
2022/09/19 19:36:44;;;;;;;2.13;1.23;;;;;;;;;;10222806;29;20377;-73
2022/09/19 19:41:45;;;;;;;0.83;0.60;;;;;;;;;;10237604;28;20098;-73
2022/09/19 19:46:45;;;;;;;1.73;0.90;;;;;;;;;;10223859;28;20209;-72
2022/09/19 19:51:45;;;;;;;4.80;2.60;;;;;;;;;;10237652;29;20800;-72
2022/09/19 19:56:45;;;;;;;1.52;0.70;;;;;;;;;;10228915;28;20490;-78
2022/09/19 20:01:46;;;;;;;1.20;1.00;;;;;;;;;;10222179;28;20015;-74
2022/09/19 20:06:46;;;;;;;2.17;1.20;;;;;;;;;;10239266;28;20035;-72
2022/09/19 20:11:47;;;;;;;5.20;1.15;;;;;;;;;;10238885;29;20093;-73
2022/09/19 20:16:47;;;;;;;4.23;0.93;;;;;;;;;;10241150;28;20046;-76
2022/09/19 20:21:49;;;;;;;1.33;0.40;;;;;;;;;;10241242;28;20027;-73
2022/09/19 20:26:50;;;;;;;5.72;0.95;;;;;;;;;;10227442;29;20429;-72
2022/09/19 20:31:51;;;;;;;0.55;0.50;;;;;;;;;;10236607;28;20058;-73
2022/09/19 20:36:52;;;;;;;0.32;0.17;;;;;;;;;;10235818;28;20035;-74
2022/09/19 20:41:52;;;;;;;0.20;0.20;;;;;;;;;;10223274;28;20026;-73
2022/09/19 20:46:52;;;;;;;0.40;0.22;;;;;;;;;;10234563;29;20275;-74
2022/09/19 20:51:53;;;;;;;0.50;0.20;;;;;;;;;;10220437;28;20065;-75
2022/09/19 20:56:53;;;;;;;0.57;0.40;;;;;;;;;;10227646;28;20023;-73
2022/09/19 21:01:54;;;;;;;0.95;0.38;;;;;;;;;;10229914;29;20437;-72
2022/09/19 21:06:54;;;;;;;0.20;0.20;;;;;;;;;;10228929;29;20039;-73
2022/09/19 21:11:54;;;;;;;0.35;0.22;;;;;;;;;;10227244;29;20338;-73
2022/09/19 21:16:54;;;;;;;0.50;0.32;;;;;;;;;;10245228;29;20050;-74
2022/09/19 21:21:55;;;;;;;6.75;0.50;;;;;;;;;;10227855;28;20023;-72
2022/09/19 21:26:55;;;;;;;2.28;0.38;;;;;;;;;;10227132;29;20034;-73
2022/09/19 21:31:55;;;;;;;0.65;0.50;;;;;;;;;;10229500;28;20138;-74
2022/09/19 21:36:55;;;;;;;0.63;0.45;;;;;;;;;;10226847;29;20030;-76
2022/09/19 21:41:56;;;;;;;91.53;84.07;;;;;;;;;;10227313;29;20031;-79
2022/09/19 21:46:56;;;;;;;0.30;0.30;;;;;;;;;;10220376;28;20046;-79
2022/09/19 21:51:56;;;;;;;0.30;0.30;;;;;;;;;;10221715;29;20482;-79
2022/09/19 21:56:56;;;;;;;0.98;0.20;;;;;;;;;;10231624;29;20034;-78
2022/09/19 22:01:57;;;;;;;1.05;0.30;;;;;;;;;;10232645;29;20549;-78
2022/09/19 22:06:57;;;;;;;0.45;0.43;;;;;;;;;;10247996;28;20486;-74
2022/09/19 22:11:57;;;;;;;0.25;0.22;;;;;;;;;;10216830;29;20027;-76
2022/09/19 22:16:57;;;;;;;0.10;0.10;;;;;;;;;;10201161;29;20118;-77
2022/09/19 22:21:58;;;;;;;0.30;0.30;;;;;;;;;;10216148;29;20035;-78
2022/09/19 22:26:58;;;;;;;0.43;0.30;;;;;;;;;;10231687;29;20082;-78
2022/09/19 22:31:58;;;;;;;1.27;0.60;;;;;;;;;;10232365;28;20291;-75
2022/09/19 22:36:59;;;;;;;1.48;0.43;;;;;;;;;;10231000;29;20043;-80
2022/09/19 22:41:59;;;;;;;0.70;0.50;;;;;;;;;;10231226;29;20114;-79
2022/09/19 22:46:59;;;;;;;0.85;0.60;;;;;;;;;;10230264;29;20198;-75
2022/09/19 22:51:59;;;;;;;0.57;0.50;;;;;;;;;;10230690;29;20031;-80
2022/09/19 22:57:00;;;;;;;0.70;0.40;;;;;;;;;;10229931;29;20031;-78
2022/09/19 23:02:00;;;;;;;1.38;0.85;;;;;;;;;;10229999;29;20015;-79
2022/09/19 23:07:00;;;;;;;0.70;0.50;;;;;;;;;;10247292;29;20031;-80
2022/09/19 23:12:01;;;;;;;0.47;0.43;;;;;;;;;;10229416;29;20050;-80
2022/09/19 23:17:01;;;;;;;0.47;0.30;;;;;;;;;;10228927;28;20023;-78
2022/09/19 23:22:02;;;;;;;0.47;0.47;;;;;;;;;;10229135;29;20385;-75
2022/09/19 23:27:02;;;;;;;3.50;0.70;;;;;;;;;;10229945;29;20034;-79
2022/09/19 23:32:02;;;;;;;0.97;0.87;;;;;;;;;;10228973;29;20053;-75
2022/09/19 23:37:03;;;;;;;1.50;1.25;;;;;;;;;;10228458;29;20298;-75
2022/09/19 23:42:04;;;;;;;1.55;1.42;;;;;;;;;;10245576;29;20057;-78
2022/09/19 23:47:04;;;;;;;2.40;1.30;;;;;;;;;;10228473;29;20386;-77
2022/09/19 23:52:04;;;;;;;2.17;1.67;;;;;;;;;;10227668;29;20023;-76
2022/09/19 23:57:05;;;;;;;2.75;1.90;;;;;;;;;;10227905;29;20278;-80
